Douglas, Illinois
Current Conditions -  °F | °C
As of 5:55 AM on Wednesday 28 Jan 2015 (Local Time) from K1H2 Reporting Station
Clear Clear  
Wind Chill: 18°   Ceiling: Unl
Heat Index: 25°   Visibility: 10mi
Dew Point: 17°   Wind: 6mph
Humidity: 74%   Direction: 110°ESE
Pressure: 30.3"   Gusts: NA
Location:  39.1183°N, 88.6059°W
Report Text: K1H2 281155Z AUTO 11005KT 10SM CLR M04/M08 A3030 RMK AO2 T10411081 11026 21041
Loading
Personal Weather Stations






























Interactive Weather Map New forecast layout! Learn more

10-Day Weather Forecast

Advertisements
Track Severe Weather on mobile